Time;durP1;ratioP1;P1;durP2;ratioP2;P2;SDS_P1;SDS_P2;PMS_P1;PMS_P2;Temp;Humidity;BMP_temperature;BMP_pressure;BME280_temperature;BME280_humidity;BME280_pressure;Samples;Min_cycle;Max_cycle;Signal;HPM_P1;HPM_P2
2022/03/12 00:01:26;;;;;;;;;;;;;;;;;;;;;
2022/03/12 00:13:41;;;;;;;;;;;;;;;3.94;35.01;100753.38;5087135;23;1538;-85
2022/03/12 00:16:16;;;;;;;;;;;;;;;3.97;35.06;100744.78;5033457;28;1384;-86
2022/03/12 00:21:36;;;;;;;;;;;;;;;4.04;34.49;100750.94;5063822;28;1792;-88
2022/03/12 00:26:50;;;;;;;;;;;;;;;4.16;34.11;100740.13;5078524;28;1887;-88
2022/03/12 00:29:38;;;;;;;;;;;;;;;4.11;34.09;100750.81;5077888;28;1617;-88
2022/03/12 00:32:26;;;;;;;;;;;;;;;4.10;34.09;100750.00;5058563;28;1792;-88
2022/03/12 00:35:06;;;;;;;;;;;;;;;4.08;33.85;100754.81;5018472;28;1461;-87
2022/03/12 00:37:34;;;;;;;;;;;;;;;4.03;33.98;100754.69;5060284;28;1689;-86
2022/03/12 00:40:02;;;;;;;;;;;;;;;4.00;34.41;100743.47;5061111;28;1227;-86
2022/03/12 00:42:39;;;;;;;;;;;;;;;;;;;;;
2022/03/12 00:45:10;;;;;;;;;;;;;;;4.00;34.07;100744.31;5075139;28;1578;-86
2022/03/12 00:47:38;;;;;;;;;;;;;;;3.84;34.32;100749.56;5060671;28;1901;-87
2022/03/12 00:50:19;;;;;;;;;;;;;;;3.75;34.82;100751.75;5060183;28;1760;-85
2022/03/12 00:52:56;;;;;;;;;;;;;;;3.62;34.92;100751.94;5062148;28;1518;-86
2022/03/12 00:55:24;;;;;;;;;;;;;;;3.68;35.03;100740.19;5060407;28;1678;-86
2022/03/12 00:57:49;;;;;;;;;;;;;;;3.71;35.33;100745.16;5060509;28;1693;-86
2022/03/12 01:00:27;;;;;;;;;;;;;;;3.66;34.89;100743.13;5060320;28;1240;-86
2022/03/12 01:03:13;;;;;;;;;;;;;;;3.76;34.99;100737.16;5056542;28;1534;-87
2022/03/12 01:05:45;;;;;;;;;;;;;;;3.79;34.80;100745.66;5056568;28;1119;-86
2022/03/12 01:08:14;;;;;;;;;;;;;;;3.83;34.80;100747.94;5054337;28;1901;-87
2022/03/12 01:10:43;;;;;;;;;;;;;;;3.81;34.64;100737.31;5054670;28;1230;-86
2022/03/12 01:13:08;;;;;;;;;;;;;;;3.82;34.36;100738.97;5067149;28;1612;-87
2022/03/12 01:19:43;;;;;;;;;;;;;;;3.70;34.47;100730.81;5013192;28;1119;-85
2022/03/12 01:28:41;;;;;;;;;;;;;;;3.67;33.86;100730.44;5012579;28;1616;-86
2022/03/12 01:31:09;;;;;;;;;;;;;;;3.65;34.12;100738.81;4997375;28;1220;-86
2022/03/12 01:33:48;;;;;;;;;;;;;;;;;;;;;
2022/03/12 01:36:16;;;;;;;;;;;;;;;3.67;33.65;100730.44;5012780;28;1684;-86
2022/03/12 01:42:02;;;;;;;;;;;;;;;3.69;33.21;100741.84;5040812;28;1197;-86
2022/03/12 01:44:39;;;;;;;;;;;;;;;3.69;33.16;100733.75;5057072;28;1802;-86
2022/03/12 01:47:13;;;;;;;;;;;;;;;3.68;33.13;100735.63;5056808;28;1906;-86
2022/03/12 01:50:10;;;;;;;;;;;;;;;;;;;;;
2022/03/12 01:52:48;;;;;;;;;;;;;;;3.62;33.45;100741.13;5077201;28;1649;-86
2022/03/12 01:55:42;;;;;;;;;;;;;;;3.59;33.26;100739.69;5057440;28;1467;-85
2022/03/12 02:04:39;;;;;;;;;;;;;;;3.58;33.28;100745.34;4956907;28;1724;-86
2022/03/12 02:07:07;;;;;;;;;;;;;;;3.53;33.38;100737.09;4960847;28;1903;-85
2022/03/12 02:10:30;;;;;;;;;;;;;;;;;;;;;
2022/03/12 02:13:18;;;;;;;;;;;;;;;;;;;;;
2022/03/12 02:16:11;;;;;;;;;;;;;;;3.48;33.30;100740.50;5037560;28;998;-88
2022/03/12 02:21:41;;;;;;;;;;;;;;;3.42;33.19;100733.25;4997824;28;1345;-86
2022/03/12 02:24:06;;;;;;;;;;;;;;;3.41;33.38;100737.84;5056580;28;1710;-86
2022/03/12 02:26:42;;;;;;;;;;;;;;;3.41;33.54;100735.13;5062688;28;1918;-86
2022/03/12 02:29:18;;;;;;;;;;;;;;;3.37;33.27;100742.06;5081307;28;1626;-86
2022/03/12 02:32:19;;;;;;;;;;;;;;;;;;;;;
2022/03/12 02:41:10;;;;;;;;;;;;;;;2.83;35.42;100753.72;4998374;28;1762;-86
2022/03/12 02:43:51;;;;;;;;;;;;;;;3.02;34.51;100758.09;4981735;28;1637;-88
2022/03/12 02:49:16;;;;;;;;;;;;;;;3.28;33.66;100754.25;5079920;28;1057;-86
2022/03/12 02:52:17;;;;;;;;;;;;;;;3.24;33.15;100755.75;5062836;28;1689;-86
2022/03/12 02:55:00;;;;;;;;;;;;;;;3.28;33.25;100756.13;5059782;28;1310;-86
2022/03/12 02:57:30;;;;;;;;;;;;;;;3.35;32.80;100752.28;5056849;28;1643;-86
2022/03/12 02:59:58;;;;;;;;;;;;;;;3.34;32.74;100755.22;5080518;28;1450;-85
2022/03/12 03:02:38;;;;;;;;;;;;;;;3.29;32.79;100747.78;5062612;28;1654;-86
2022/03/12 03:05:03;;;;;;;;;;;;;;;3.13;33.01;100753.81;5062271;28;1610;-86
2022/03/12 03:07:29;;;;;;;;;;;;;;;3.15;32.89;100759.81;5061978;28;1930;-86
2022/03/12 03:09:54;;;;;;;;;;;;;;;3.12;33.01;100760.28;5062155;28;1358;-85
2022/03/12 03:12:22;;;;;;;;;;;;;;;3.13;33.20;100747.59;5062128;28;1678;-86
2022/03/12 03:14:49;;;;;;;;;;;;;;;3.08;33.30;100759.06;5058304;28;1657;-86
2022/03/12 03:17:16;;;;;;;;;;;;;;;2.98;33.51;100753.34;5050822;28;1360;-86
2022/03/12 03:19:44;;;;;;;;;;;;;;;3.06;33.33;100753.06;5042722;28;1307;-86
2022/03/12 03:22:10;;;;;;;;;;;;;;;2.98;32.77;100754.16;5042671;28;1250;-86
2022/03/12 03:24:38;;;;;;;;;;;;;;;2.96;32.89;100756.28;5043026;28;1654;-86
2022/03/12 03:27:04;;;;;;;;;;;;;;;2.99;32.83;100755.00;5062088;28;1948;-86
2022/03/12 03:29:41;;;;;;;;;;;;;;;3.00;32.94;100762.88;5063338;28;1757;-86
2022/03/12 03:32:09;;;;;;;;;;;;;;;2.96;33.50;100764.41;5063867;28;1642;-86
2022/03/12 03:34:45;;;;;;;;;;;;;;;2.97;33.07;100762.53;5062187;28;1531;-86
2022/03/12 03:40:29;;;;;;;;;;;;;;;2.81;33.93;100766.63;5007542;28;1286;-86
2022/03/12 03:43:30;;;;;;;;;;;;;;;2.82;33.85;100767.44;5045358;28;1650;-86
2022/03/12 03:46:24;;;;;;;;;;;;;;;;;;;;;
2022/03/12 03:48:53;;;;;;;;;;;;;;;2.70;33.92;100767.38;5082486;28;683;-85
2022/03/12 03:51:58;;;;;;;;;;;;;;;;;;;;;
2022/03/12 04:07:40;;;;;;;;;;;;;;;2.52;33.77;100789.75;4978018;28;1875;-85
2022/03/12 04:13:11;;;;;;;;;;;;;;;;;;;;;
2022/03/12 04:19:19;;;;;;;;;;;;;;;;;;;;;
2022/03/12 04:21:48;;;;;;;;;;;;;;;2.81;33.13;100796.34;5070705;28;1601;-86
2022/03/12 04:24:35;;;;;;;;;;;;;;;2.82;33.10;100811.53;5075175;28;1660;-86
2022/03/12 04:27:14;;;;;;;;;;;;;;;;;;;;;
2022/03/12 04:30:17;;;;;;;;;;;;;;;;;;;;;
2022/03/12 04:32:52;;;;;;;;;;;;;;;2.78;33.49;100836.53;5058794;28;1752;-86
2022/03/12 04:35:41;;;;;;;;;;;;;;;2.79;33.39;100830.06;5060405;28;1622;-85
2022/03/12 04:38:11;;;;;;;;;;;;;;;2.72;33.54;100837.41;5044891;28;1301;-87
2022/03/12 04:40:55;;;;;;;;;;;;;;;2.83;33.29;100825.88;5060311;28;1657;-86
2022/03/12 04:43:37;;;;;;;;;;;;;;;;;;;;;
2022/03/12 04:46:10;;;;;;;;;;;;;;;2.70;33.85;100823.28;5078424;28;1967;-86
2022/03/12 04:48:55;;;;;;;;;;;;;;;2.82;33.72;100840.44;5078872;28;1718;-86
2022/03/12 04:56:49;;;;;;;;;;;;;;;2.77;33.88;100838.41;5117125;28;1190;-86
2022/03/12 05:03:08;;;;;;;;;;;;;;;2.78;33.57;100839.22;5084879;28;1665;-87
2022/03/12 05:15:17;;;;;;;;;;;;;;;2.92;33.06;100843.47;5017104;28;1665;-87
2022/03/12 05:20:59;;;;;;;;;;;;;;;2.73;32.76;100849.84;5042110;28;1693;-87
2022/03/12 05:29:22;;;;;;;;;;;;;;;2.79;32.92;100867.91;5117108;28;662;-87
2022/03/12 05:40:55;;;;;;;;;;;;;;;2.92;32.88;100863.22;4995857;28;1711;-87
2022/03/12 05:43:21;;;;;;;;;;;;;;;2.89;32.96;100868.25;4978107;28;1571;-87
2022/03/12 05:46:15;;;;;;;;;;;;;;;;;;;;;
2022/03/12 05:48:38;;;;;;;;;;;;;;;2.84;32.64;100865.38;5056007;28;1387;-88
2022/03/12 05:51:04;;;;;;;;;;;;;;;2.82;32.80;100862.88;5041540;28;1567;-86
2022/03/12 05:53:35;;;;;;;;;;;;;;;2.79;32.98;100870.63;5040501;28;1657;-88
2022/03/12 05:56:33;;;;;;;;;;;;;;;2.83;32.96;100866.41;5020567;28;1430;-87
2022/03/12 05:59:55;;;;;;;;;;;;;;;;;;;;;
2022/03/12 06:05:24;;;;;;;;;;;;;;;2.80;33.29;100880.41;5078981;28;584;-87
2022/03/12 06:08:58;;;;;;;;;;;;;;;;;;;;;
2022/03/12 06:14:38;;;;;;;;;;;;;;;2.72;33.70;100888.78;4975731;28;1676;-87
2022/03/12 06:17:28;;;;;;;;;;;;;;;2.72;33.85;100880.66;4977237;28;1239;-87
2022/03/12 06:20:17;;;;;;;;;;;;;;;2.73;33.43;100901.22;5007136;28;1452;-87
2022/03/12 06:26:15;;;;;;;;;;;;;;;2.70;33.79;100904.38;5077269;28;1981;-87
2022/03/12 06:29:12;;;;;;;;;;;;;;;2.66;33.67;100910.22;5054370;28;1710;-86
2022/03/12 06:32:22;;;;;;;;;;;;;;;2.77;32.69;100907.84;5034818;28;1471;-86
2022/03/12 06:35:25;;;;;;;;;;;;;;;2.87;33.13;100910.91;4979695;28;1446;-87
2022/03/12 06:37:53;;;;;;;;;;;;;;;2.88;32.81;100915.25;4987032;28;1143;-87
2022/03/12 06:40:40;;;;;;;;;;;;;;;2.92;33.43;100919.16;5042156;28;1481;-87
2022/03/12 06:43:10;;;;;;;;;;;;;;;2.89;33.31;100919.63;5068106;28;1470;-87
2022/03/12 06:45:35;;;;;;;;;;;;;;;2.87;32.95;100916.31;5065294;28;1426;-86
2022/03/12 06:48:01;;;;;;;;;;;;;;;2.90;33.35;100926.66;5060669;28;1977;-86
2022/03/12 06:50:30;;;;;;;;;;;;;;;2.96;32.91;100921.22;5078374;28;1406;-87
2022/03/12 06:52:58;;;;;;;;;;;;;;;2.97;33.01;100927.47;5060064;28;1424;-87
2022/03/12 06:55:24;;;;;;;;;;;;;;;3.00;33.38;100935.13;5062018;28;1537;-87
2022/03/12 06:57:51;;;;;;;;;;;;;;;3.06;32.83;100930.72;5061443;28;1521;-87
2022/03/12 07:00:23;;;;;;;;;;;;;;;3.13;32.84;100932.31;5060392;28;1097;-87
2022/03/12 07:02:48;;;;;;;;;;;;;;;3.20;32.90;100940.38;5060286;28;1387;-86
2022/03/12 07:05:13;;;;;;;;;;;;;;;3.24;33.22;100934.28;5061764;28;1426;-87
2022/03/12 07:08:04;;;;;;;;;;;;;;;3.29;33.32;100934.47;5078805;28;1969;-87
2022/03/12 07:10:33;;;;;;;;;;;;;;;3.36;32.94;100937.09;5078104;28;1489;-86
2022/03/12 07:14:12;;;;;;;;;;;;;;;;;;;;;
2022/03/12 07:19:15;;;;;;;;;;;;;;;3.42;32.70;100931.63;5073741;28;1343;-87
2022/03/12 07:22:02;;;;;;;;;;;;;;;3.46;32.99;100934.72;5076651;28;1418;-87
2022/03/12 07:24:27;;;;;;;;;;;;;;;3.46;33.21;100936.59;5078257;28;1518;-87
2022/03/12 07:26:52;;;;;;;;;;;;;;;3.44;33.05;100931.41;5061192;28;1894;-86
2022/03/12 07:29:18;;;;;;;;;;;;;;;3.57;33.38;100939.41;5062148;28;976;-88
2022/03/12 07:31:43;;;;;;;;;;;;;;;3.68;33.17;100938.63;5060374;28;1388;-87
2022/03/12 07:34:08;;;;;;;;;;;;;;;3.66;32.69;100938.03;5059748;28;1220;-88
2022/03/12 07:36:33;;;;;;;;;;;;;;;3.56;32.89;100943.16;5059523;28;1270;-89
2022/03/12 07:39:03;;;;;;;;;;;;;;;3.59;33.15;100937.28;5059516;28;1236;-88
2022/03/12 07:41:29;;;;;;;;;;;;;;;3.59;32.78;100937.28;5040025;28;1289;-89
2022/03/12 07:44:30;;;;;;;;;;;;;;;;;;;;;
2022/03/12 07:47:20;;;;;;;;;;;;;;;;;;;;;
2022/03/12 07:52:49;;;;;;;;;;;;;;;3.81;32.82;100945.81;5074171;28;1565;-89
2022/03/12 07:55:16;;;;;;;;;;;;;;;3.86;32.79;100945.94;5059872;28;1330;-90
2022/03/12 07:57:41;;;;;;;;;;;;;;;3.90;32.39;100949.03;5059496;28;1543;-89
2022/03/12 08:00:08;;;;;;;;;;;;;;;3.95;32.71;100946.47;5059803;28;1478;-90
2022/03/12 08:05:32;;;;;;;;;;;;;;;4.03;32.71;100944.28;5073717;28;1228;-89
2022/03/12 08:08:00;;;;;;;;;;;;;;;4.06;32.63;100946.56;5059560;28;1927;-89
2022/03/12 08:10:35;;;;;;;;;;;;;;;;;;;;;
2022/03/12 08:13:03;;;;;;;;;;;;;;;4.09;32.96;100948.78;5077542;28;1227;-89
2022/03/12 08:15:28;;;;;;;;;;;;;;;4.08;33.01;100936.28;5059662;28;1104;-90
2022/03/12 08:17:53;;;;;;;;;;;;;;;4.09;33.16;100931.72;5058037;28;1119;-90
2022/03/12 08:20:18;;;;;;;;;;;;;;;4.13;33.29;100935.63;5074518;28;1011;-90
2022/03/12 08:22:45;;;;;;;;;;;;;;;4.21;33.34;100931.78;5072813;28;1180;-91
2022/03/12 08:25:11;;;;;;;;;;;;;;;4.10;33.39;100917.94;5056563;28;1238;-91
2022/03/12 08:27:37;;;;;;;;;;;;;;;4.27;33.48;100941.69;5074309;28;1967;-90
2022/03/12 08:30:04;;;;;;;;;;;;;;;4.33;32.93;100933.50;5051918;28;1332;-90
2022/03/12 08:32:29;;;;;;;;;;;;;;;4.40;33.19;100938.84;5056081;28;1322;-89
2022/03/12 08:34:57;;;;;;;;;;;;;;;4.45;33.14;100928.94;5074220;28;892;-90
2022/03/12 08:37:22;;;;;;;;;;;;;;;4.50;32.83;100930.97;5056461;28;1204;-90
2022/03/12 08:39:48;;;;;;;;;;;;;;;4.49;33.22;100932.03;5056370;28;1192;-90
2022/03/12 08:42:13;;;;;;;;;;;;;;;4.54;33.54;100934.88;5055453;28;1456;-90
2022/03/12 08:44:39;;;;;;;;;;;;;;;4.58;33.36;100936.06;5056018;28;1477;-90
2022/03/12 08:47:05;;;;;;;;;;;;;;;4.61;33.41;100929.34;5051055;28;1948;-89
2022/03/12 08:49:30;;;;;;;;;;;;;;;4.63;33.38;100930.78;5047890;28;1383;-89
2022/03/12 08:51:56;;;;;;;;;;;;;;;4.69;33.19;100939.88;5041435;28;1315;-90
2022/03/12 08:54:21;;;;;;;;;;;;;;;4.69;32.89;100932.56;5055664;28;1523;-90
2022/03/12 08:56:46;;;;;;;;;;;;;;;4.70;32.63;100926.09;5055987;28;1234;-90
2022/03/12 08:59:12;;;;;;;;;;;;;;;4.75;33.16;100920.81;5056003;28;1215;-89
2022/03/12 09:01:37;;;;;;;;;;;;;;;4.81;33.23;100916.34;5054998;28;1405;-90
2022/03/12 09:04:03;;;;;;;;;;;;;;;4.92;32.51;100920.97;5049918;28;1367;-91
2022/03/12 09:06:31;;;;;;;;;;;;;;;4.99;32.51;100910.81;5055493;28;1886;-90
2022/03/12 09:08:58;;;;;;;;;;;;;;;5.03;32.40;100901.16;5056859;28;1281;-89
2022/03/12 09:11:23;;;;;;;;;;;;;;;5.09;32.24;100912.97;5056056;28;1231;-90
2022/03/12 09:13:49;;;;;;;;;;;;;;;5.11;33.15;100902.69;5055778;28;1223;-89
2022/03/12 09:16:15;;;;;;;;;;;;;;;5.17;32.74;100891.75;5052472;28;1416;-91
2022/03/12 09:18:41;;;;;;;;;;;;;;;5.26;32.02;100900.34;5055851;28;1421;-88
2022/03/12 09:21:07;;;;;;;;;;;;;;;5.30;32.55;100890.66;5035492;28;1345;-89
2022/03/12 09:23:33;;;;;;;;;;;;;;;5.35;32.77;100888.09;5049099;28;1419;-90
2022/03/12 09:25:59;;;;;;;;;;;;;;;5.42;32.67;100880.63;5055378;28;1230;-89
2022/03/12 09:28:24;;;;;;;;;;;;;;;5.38;32.93;100878.63;5054624;28;1902;-89
2022/03/12 09:30:50;;;;;;;;;;;;;;;5.36;33.12;100878.84;5055409;28;1341;-89
2022/03/12 09:33:17;;;;;;;;;;;;;;;5.37;32.79;100885.94;5055571;28;1446;-88
2022/03/12 09:35:42;;;;;;;;;;;;;;;5.40;33.50;100890.06;5059071;28;1533;-88
2022/03/12 09:38:07;;;;;;;;;;;;;;;5.48;33.63;100881.56;5059802;28;1172;-88
2022/03/12 09:40:33;;;;;;;;;;;;;;;5.60;32.30;100877.78;5061424;28;1334;-87
2022/03/12 09:42:58;;;;;;;;;;;;;;;5.62;32.36;100878.34;5059708;28;1366;-88
2022/03/12 09:45:24;;;;;;;;;;;;;;;5.65;33.17;100872.47;5060690;28;1243;-88
2022/03/12 09:47:49;;;;;;;;;;;;;;;5.71;33.55;100870.66;5060406;28;1973;-87
2022/03/12 09:50:14;;;;;;;;;;;;;;;5.76;33.35;100867.25;5060694;28;1207;-89
2022/03/12 09:52:40;;;;;;;;;;;;;;;5.83;33.60;100868.75;5060609;28;1214;-87
2022/03/12 09:55:06;;;;;;;;;;;;;;;5.83;33.64;100870.66;5055999;28;1227;-90
2022/03/12 09:57:34;;;;;;;;;;;;;;;5.87;33.78;100864.47;5055290;28;1319;-90
2022/03/12 09:59:59;;;;;;;;;;;;;;;5.88;33.79;100860.72;5055413;28;1034;-89
2022/03/12 10:02:24;;;;;;;;;;;;;;;5.98;33.94;100866.38;5055197;28;1202;-90
2022/03/12 10:04:50;;;;;;;;;;;;;;;6.10;33.67;100868.25;5055012;28;1256;-89
2022/03/12 10:07:15;;;;;;;;;;;;;;;6.04;33.95;100862.69;5055170;28;1961;-90
2022/03/12 10:09:41;;;;;;;;;;;;;;;6.03;34.36;100868.38;5055460;28;1195;-89
2022/03/12 10:12:07;;;;;;;;;;;;;;;6.17;34.85;100869.75;5055210;28;1243;-88
2022/03/12 10:14:32;;;;;;;;;;;;;;;6.25;33.95;100866.63;5072968;28;840;-89
2022/03/12 10:17:00;;;;;;;;;;;;;;;6.23;34.04;100860.59;5055352;28;1215;-91
2022/03/12 10:19:26;;;;;;;;;;;;;;;6.29;35.05;100859.66;5055043;28;1427;-89
2022/03/12 10:21:52;;;;;;;;;;;;;;;6.34;34.54;100862.47;5072754;28;1556;-88
2022/03/12 10:24:17;;;;;;;;;;;;;;;6.40;33.83;100861.47;5055033;28;1326;-90
2022/03/12 10:26:42;;;;;;;;;;;;;;;6.44;34.17;100854.50;5054870;28;1902;-90
2022/03/12 10:29:09;;;;;;;;;;;;;;;6.50;34.09;100839.09;5055332;28;1301;-89
2022/03/12 10:31:34;;;;;;;;;;;;;;;6.56;33.78;100845.41;5055347;28;1207;-89
2022/03/12 10:34:18;;;;;;;;;;;;;;;6.48;34.24;100849.38;5054987;28;1341;-90
2022/03/12 10:36:44;;;;;;;;;;;;;;;6.52;34.73;100849.72;5058492;28;1206;-90
2022/03/12 10:39:09;;;;;;;;;;;;;;;6.57;34.64;100842.47;5058462;28;1263;-89
2022/03/12 10:41:36;;;;;;;;;;;;;;;6.62;34.56;100842.56;5058312;28;1392;-90
2022/03/12 10:44:02;;;;;;;;;;;;;;;6.70;34.58;100833.16;5058433;28;1306;-89
2022/03/12 10:46:28;;;;;;;;;;;;;;;6.74;34.78;100831.59;5058393;28;1898;-89
2022/03/12 10:48:57;;;;;;;;;;;;;;;6.92;35.18;100838.69;5058237;28;1280;-89
2022/03/12 10:51:30;;;;;;;;;;;;;;;7.04;34.47;100829.38;5076015;28;1223;-90
2022/03/12 10:54:03;;;;;;;;;;;;;;;7.13;34.29;100830.59;5076247;28;786;-90
2022/03/12 10:56:41;;;;;;;;;;;;;;;7.15;34.76;100833.03;5058007;28;1209;-90
2022/03/12 10:59:11;;;;;;;;;;;;;;;7.19;34.69;100836.94;5058218;28;1471;-89
2022/03/12 11:01:36;;;;;;;;;;;;;;;7.24;34.96;100834.28;5057911;28;1212;-90
2022/03/12 11:04:01;;;;;;;;;;;;;;;7.31;34.73;100834.94;5057815;28;1167;-89
2022/03/12 11:06:26;;;;;;;;;;;;;;;7.40;35.11;100836.13;5057827;28;1897;-89
2022/03/12 11:08:52;;;;;;;;;;;;;;;7.42;35.03;100838.59;5057907;28;846;-90
2022/03/12 11:11:17;;;;;;;;;;;;;;;7.49;35.05;100839.25;5059413;28;1486;-89
2022/03/12 11:13:52;;;;;;;;;;;;;;;7.61;34.84;100837.25;5057665;28;988;-90
2022/03/12 11:16:21;;;;;;;;;;;;;;;7.56;34.95;100839.91;5057124;28;1553;-89
2022/03/12 11:18:53;;;;;;;;;;;;;;;7.60;34.93;100841.88;5055899;28;1368;-90
2022/03/12 11:21:37;;;;;;;;;;;;;;;7.56;35.29;100834.47;5057563;28;1318;-90
2022/03/12 11:24:05;;;;;;;;;;;;;;;7.57;35.59;100842.34;5057520;28;1219;-89
2022/03/12 11:26:30;;;;;;;;;;;;;;;7.60;35.60;100844.59;5057500;28;1887;-89
2022/03/12 11:28:59;;;;;;;;;;;;;;;7.66;35.49;100837.28;5057686;28;1351;-90
2022/03/12 11:31:41;;;;;;;;;;;;;;;7.83;35.89;100838.06;5054424;28;1504;-88
2022/03/12 11:34:20;;;;;;;;;;;;;;;7.77;35.53;100839.09;5042616;28;1494;-88
2022/03/12 11:36:55;;;;;;;;;;;;;;;7.85;35.90;100846.81;5045165;28;1462;-88
2022/03/12 11:39:26;;;;;;;;;;;;;;;7.87;36.12;100841.94;5050580;28;1539;-88
2022/03/12 11:42:02;;;;;;;;;;;;;;;7.95;36.03;100844.22;5060334;28;1490;-89
2022/03/12 11:44:29;;;;;;;;;;;;;;;7.94;36.18;100837.09;5063703;28;1485;-88
2022/03/12 11:46:54;;;;;;;;;;;;;;;7.95;36.76;100846.94;5065087;28;1898;-87
2022/03/12 11:49:20;;;;;;;;;;;;;;;8.05;36.52;100842.69;5061205;28;1353;-87
2022/03/12 11:51:46;;;;;;;;;;;;;;;8.07;36.53;100838.63;5065624;28;1494;-87
2022/03/12 11:54:11;;;;;;;;;;;;;;;8.28;36.45;100847.84;5062808;28;1391;-87
2022/03/12 11:56:38;;;;;;;;;;;;;;;8.37;36.32;100840.88;5060321;28;1252;-87
2022/03/12 11:59:03;;;;;;;;;;;;;;;8.30;36.38;100841.06;5051853;28;1557;-87
2022/03/12 12:01:28;;;;;;;;;;;;;;;8.37;36.39;100826.41;5078053;28;1328;-88
2022/03/12 12:03:53;;;;;;;;;;;;;;;8.33;36.98;100818.78;5061091;28;1353;-87
2022/03/12 12:06:18;;;;;;;;;;;;;;;8.48;36.36;100825.44;5064349;28;1866;-87
2022/03/12 12:08:45;;;;;;;;;;;;;;;8.47;37.16;100823.78;5065433;28;892;-86
2022/03/12 12:11:11;;;;;;;;;;;;;;;8.53;36.71;100825.47;5081586;28;1573;-87
2022/03/12 12:13:36;;;;;;;;;;;;;;;8.60;37.23;100824.19;5045273;28;1341;-87
2022/03/12 12:16:04;;;;;;;;;;;;;;;8.66;37.49;100827.78;5060440;28;1333;-87
2022/03/12 12:18:29;;;;;;;;;;;;;;;8.78;36.83;100825.69;5063929;28;1487;-86
2022/03/12 12:20:54;;;;;;;;;;;;;;;8.92;36.95;100812.44;5063991;28;1391;-87
2022/03/12 12:23:20;;;;;;;;;;;;;;;8.99;37.16;100813.84;5060515;28;1546;-87
2022/03/12 12:25:45;;;;;;;;;;;;;;;9.05;36.99;100811.97;5060570;28;1310;-87
2022/03/12 12:28:21;;;;;;;;;;;;;;;9.09;37.88;100815.84;5064423;28;1886;-88
2022/03/12 12:30:48;;;;;;;;;;;;;;;9.14;37.86;100807.66;5062653;28;1300;-86
2022/03/12 12:33:15;;;;;;;;;;;;;;;9.19;37.45;100798.66;5064193;28;1511;-87
2022/03/12 12:35:41;;;;;;;;;;;;;;;9.24;37.77;100798.72;5060777;28;1333;-89
2022/03/12 12:38:18;;;;;;;;;;;;;;;9.33;38.31;100792.50;5063756;28;1054;-87
2022/03/12 12:40:47;;;;;;;;;;;;;;;9.51;38.13;100801.31;5076395;28;1415;-87
2022/03/12 12:43:13;;;;;;;;;;;;;;;9.55;37.64;100800.50;5047627;28;1533;-87
2022/03/12 12:45:53;;;;;;;;;;;;;;;9.61;38.68;100798.66;5045130;28;1349;-87
2022/03/12 12:48:41;;;;;;;;;;;;;;;9.61;37.70;100793.97;5062212;28;1945;-87
2022/03/12 12:51:15;;;;;;;;;;;;;;;9.63;38.83;100790.97;5081555;28;1207;-88
2022/03/12 12:53:41;;;;;;;;;;;;;;;9.72;39.17;100783.91;5044612;28;1446;-87
2022/03/12 12:56:22;;;;;;;;;;;;;;;9.82;39.26;100775.75;5063541;28;1473;-88
2022/03/12 12:59:02;;;;;;;;;;;;;;;9.79;39.00;100770.81;5061618;28;1031;-87
2022/03/12 13:01:45;;;;;;;;;;;;;;;10.01;38.73;100765.13;5055804;28;1487;-87
2022/03/12 13:04:11;;;;;;;;;;;;;;;10.00;38.46;100764.31;5064337;28;1415;-87
2022/03/12 13:06:36;;;;;;;;;;;;;;;10.04;38.62;100768.13;5056863;28;1953;-87
2022/03/12 13:09:05;;;;;;;;;;;;;;;10.15;39.34;100766.25;5043396;28;1223;-87
2022/03/12 13:11:39;;;;;;;;;;;;;;;10.38;39.17;100762.22;5043923;28;1318;-87
2022/03/12 13:14:30;;;;;;;;;;;;;;;10.81;38.84;100764.38;5063568;28;1360;-87
2022/03/12 13:17:00;;;;;;;;;;;;;;;12.33;36.78;100757.50;5058274;28;1321;-88
2022/03/12 13:19:28;;;;;;;;;;;;;;;14.23;35.32;100748.47;5061655;28;1498;-87
2022/03/12 13:22:04;;;;;;;;;;;;;;;17.29;31.38;100745.25;5061218;28;1498;-87
2022/03/12 13:24:30;;;;;;;;;;;;;;;17.88;29.07;100743.00;5079925;28;821;-87
2022/03/12 13:26:59;;;;;;;;;;;;;;;18.14;29.41;100743.84;5061142;28;1968;-87
2022/03/12 13:29:25;;;;;;;;;;;;;;;17.54;29.63;100744.53;5061421;28;1560;-88
2022/03/12 13:31:53;;;;;;;;;;;;;;;17.46;28.62;100738.97;5081368;28;1557;-88
2022/03/12 13:34:19;;;;;;;;;;;;;;;17.27;29.39;100740.03;5048579;28;1361;-87
2022/03/12 13:36:45;;;;;;;;;;;;;;;16.79;29.27;100736.38;5059598;28;1206;-87
2022/03/12 13:39:11;;;;;;;;;;;;;;;16.83;29.38;100729.09;5057931;28;1685;-87
2022/03/12 13:41:37;;;;;;;;;;;;;;;16.74;29.18;100734.56;5078373;28;1667;-87
2022/03/12 13:44:03;;;;;;;;;;;;;;;15.96;30.40;100724.03;5061283;28;1713;-88
2022/03/12 13:46:29;;;;;;;;;;;;;;;15.76;30.83;100723.34;5056072;28;1890;-88
2022/03/12 13:48:57;;;;;;;;;;;;;;;15.28;30.98;100725.72;5073263;28;858;-88
2022/03/12 13:51:22;;;;;;;;;;;;;;;14.33;32.40;100720.78;5073084;28;1726;-88
2022/03/12 13:53:52;;;;;;;;;;;;;;;13.44;32.87;100722.63;5073140;28;1054;-87
2022/03/12 13:56:18;;;;;;;;;;;;;;;13.12;34.17;100717.72;5055221;28;1187;-89
2022/03/12 13:58:46;;;;;;;;;;;;;;;12.90;33.80;100721.00;5055125;28;1331;-88
2022/03/12 14:01:15;;;;;;;;;;;;;;;13.19;34.37;100723.72;5055070;28;1346;-88
2022/03/12 14:03:45;;;;;;;;;;;;;;;13.56;33.25;100717.50;5072897;28;1360;-88
2022/03/12 14:06:25;;;;;;;;;;;;;;;13.52;33.04;100714.53;5073051;28;864;-88
2022/03/12 14:08:51;;;;;;;;;;;;;;;14.47;32.66;100727.19;5056775;28;1450;-87
2022/03/12 14:11:27;;;;;;;;;;;;;;;14.93;31.41;100721.69;5058953;28;1215;-88
2022/03/12 14:13:56;;;;;;;;;;;;;;;15.05;31.73;100722.03;5038902;28;1141;-88
2022/03/12 14:16:27;;;;;;;;;;;;;;;15.51;31.36;100710.88;5055664;28;1278;-88
2022/03/12 14:19:01;;;;;;;;;;;;;;;17.30;29.92;100708.97;5055543;28;1196;-89
2022/03/12 14:21:36;;;;;;;;;;;;;;;17.46;28.52;100708.53;5038496;28;1300;-89
2022/03/12 14:24:15;;;;;;;;;;;;;;;17.01;28.58;100711.47;5056526;28;907;-89
2022/03/12 14:26:46;;;;;;;;;;;;;;;16.37;29.76;100704.53;5038534;28;1894;-89
2022/03/12 14:29:12;;;;;;;;;;;;;;;14.97;31.11;100710.91;5038761;28;1337;-89
2022/03/12 14:31:37;;;;;;;;;;;;;;;14.36;32.26;100711.94;5058161;28;1229;-88
2022/03/12 14:34:03;;;;;;;;;;;;;;;15.27;30.42;100707.53;5063573;28;1566;-88
2022/03/12 14:36:28;;;;;;;;;;;;;;;14.79;30.83;100706.28;5045698;28;1282;-88
2022/03/12 14:38:53;;;;;;;;;;;;;;;14.52;31.11;100710.59;5038468;28;1283;-89
2022/03/12 14:41:18;;;;;;;;;;;;;;;14.52;32.26;100704.25;5056262;28;1217;-87
2022/03/12 14:43:44;;;;;;;;;;;;;;;14.77;31.17;100698.31;5058244;28;1318;-88
2022/03/12 14:46:09;;;;;;;;;;;;;;;15.03;31.72;100693.94;5076271;28;919;-89
2022/03/12 14:48:34;;;;;;;;;;;;;;;15.69;30.67;100697.28;5073032;28;1882;-88
2022/03/12 14:51:00;;;;;;;;;;;;;;;15.85;30.25;100690.31;5038351;28;1245;-87
2022/03/12 14:53:26;;;;;;;;;;;;;;;15.38;31.13;100694.34;5072697;28;1644;-89
2022/03/12 14:55:51;;;;;;;;;;;;;;;15.25;31.00;100687.69;5058257;28;1398;-88
2022/03/12 14:58:17;;;;;;;;;;;;;;;15.60;30.82;100690.88;5056730;28;1386;-88
2022/03/12 15:00:43;;;;;;;;;;;;;;;15.75;30.29;100693.28;5035554;28;1195;-87
2022/03/12 15:03:10;;;;;;;;;;;;;;;15.76;30.35;100689.41;5035620;28;1215;-87
2022/03/12 15:05:37;;;;;;;;;;;;;;;15.29;31.18;100694.25;5055098;28;1348;-87
2022/03/12 15:08:03;;;;;;;;;;;;;;;14.49;32.39;100702.09;5042856;28;1898;-87
2022/03/12 15:10:28;;;;;;;;;;;;;;;14.04;31.71;100698.94;5056010;28;872;-87
2022/03/12 15:12:57;;;;;;;;;;;;;;;14.47;32.66;100699.63;5057097;28;1284;-87
2022/03/12 15:15:25;;;;;;;;;;;;;;;14.26;31.89;100696.38;5057640;28;1286;-86
2022/03/12 15:17:52;;;;;;;;;;;;;;;14.15;32.37;100696.84;5054604;28;1478;-87
2022/03/12 15:20:22;;;;;;;;;;;;;;;13.96;32.56;100683.09;5071446;28;1419;-87
2022/03/12 15:22:48;;;;;;;;;;;;;;;13.88;33.25;100686.53;5075686;28;1187;-87
2022/03/12 15:25:15;;;;;;;;;;;;;;;13.90;32.76;100690.63;5057391;28;1360;-87
2022/03/12 15:27:40;;;;;;;;;;;;;;;13.82;32.85;100695.97;5057404;28;1955;-88
2022/03/12 15:30:07;;;;;;;;;;;;;;;14.14;33.50;100692.44;5057689;28;1225;-87
2022/03/12 15:32:34;;;;;;;;;;;;;;;14.93;32.25;100693.31;5057846;28;1470;-88
2022/03/12 15:34:59;;;;;;;;;;;;;;;15.62;40.17;100691.38;5065332;28;1324;-87
2022/03/12 15:37:50;;;;;;;;;;;;;;;16.36;55.18;100700.94;5056709;28;1308;-88
2022/03/12 15:40:15;;;;;;;;;;;;;;;15.85;52.52;100695.81;5049795;28;1268;-89
2022/03/12 15:42:42;;;;;;;;;;;;;;;15.34;47.92;100687.81;5057015;28;1366;-87
2022/03/12 15:45:12;;;;;;;;;;;;;;;14.79;49.76;100696.06;5053653;28;1481;-87
2022/03/12 15:47:38;;;;;;;;;;;;;;;14.19;50.85;100690.47;5037427;28;1961;-87
2022/03/12 15:50:04;;;;;;;;;;;;;;;13.92;45.85;100690.31;5055047;28;1114;-87